createdAt,value
2022-09-27T00:01:16.257Z,9.00
2022-09-27T00:02:34.110Z,9.00
2022-09-27T00:03:51.923Z,9.00
2022-09-27T00:05:09.748Z,9.00
2022-09-27T00:06:27.875Z,9.00
2022-09-27T00:07:44.246Z,9.00
2022-09-27T00:09:02.081Z,9.00
2022-09-27T00:10:18.436Z,1.00
2022-09-27T00:11:36.326Z,9.00
2022-09-27T00:12:54.387Z,9.00
2022-09-27T00:14:12.213Z,1.00
2022-09-27T00:15:30.130Z,9.00
2022-09-27T00:16:47.962Z,1.00
2022-09-27T00:18:04.317Z,9.00
2022-09-27T00:19:20.975Z,9.00
2022-09-27T00:20:38.908Z,9.00
2022-09-27T00:21:56.229Z,1.00
2022-09-27T00:23:14.031Z,9.00
2022-09-27T00:24:31.859Z,9.00
2022-09-27T00:25:49.970Z,9.00
2022-09-27T00:27:07.818Z,1.00
2022-09-27T00:28:26.121Z,1.00
2022-09-27T00:29:43.948Z,9.00
2022-09-27T00:31:00.388Z,9.00
2022-09-27T00:32:17.013Z,9.00
2022-09-27T00:33:34.814Z,1.00
2022-09-27T00:34:51.244Z,9.00
2022-09-27T00:36:09.052Z,1.00
2022-09-27T00:37:26.895Z,9.00
2022-09-27T00:38:45.057Z,1.00
2022-09-27T00:40:02.892Z,9.00
2022-09-27T00:41:19.244Z,9.00
2022-09-27T00:42:37.064Z,1.00
2022-09-27T00:43:54.905Z,9.00
2022-09-27T00:45:13.040Z,9.00
2022-09-27T00:46:29.473Z,9.00
2022-09-27T00:47:47.287Z,9.00
2022-09-27T00:49:05.141Z,9.00
2022-09-27T00:50:22.949Z,9.00
2022-09-27T00:51:41.096Z,9.00
2022-09-27T00:52:57.440Z,1.00
2022-09-27T00:54:14.748Z,9.00
2022-09-27T00:55:31.129Z,9.00
2022-09-27T00:56:47.510Z,9.00
2022-09-27T00:58:04.170Z,9.00
2022-09-27T00:59:21.982Z,9.00
2022-09-27T01:00:38.350Z,9.00
2022-09-27T01:01:56.264Z,9.00
2022-09-27T01:03:14.101Z,9.00
2022-09-27T01:04:30.762Z,9.00
2022-09-27T01:05:47.169Z,9.00
2022-09-27T01:07:05.014Z,9.00
2022-09-27T01:08:22.844Z,9.00
2022-09-27T01:09:39.199Z,9.00
2022-09-27T01:10:55.857Z,9.00
2022-09-27T01:12:13.693Z,9.00
2022-09-27T01:13:31.535Z,9.00
2022-09-27T01:14:49.334Z,9.00
2022-09-27T01:16:07.269Z,9.00
2022-09-27T01:17:23.924Z,9.00
2022-09-27T01:18:40.303Z,9.00
2022-09-27T01:19:56.661Z,9.00
2022-09-27T01:21:14.507Z,9.00
2022-09-27T01:22:32.393Z,9.00
2022-09-27T01:23:49.046Z,9.00
2022-09-27T01:25:05.397Z,9.00
2022-09-27T01:26:23.233Z,9.00
2022-09-27T01:27:41.558Z,9.00
2022-09-27T01:28:59.425Z,9.00
2022-09-27T01:30:16.066Z,9.00
2022-09-27T01:31:32.464Z,9.00
2022-09-27T01:32:48.799Z,9.00
2022-09-27T01:34:05.234Z,9.00
2022-09-27T01:35:23.067Z,9.00
2022-09-27T01:36:41.689Z,9.00
2022-09-27T01:37:59.498Z,9.00
2022-09-27T01:39:15.960Z,1.00
2022-09-27T01:40:32.437Z,9.00
2022-09-27T01:41:48.821Z,9.00
2022-09-27T01:43:05.488Z,9.00
2022-09-27T01:44:21.881Z,9.00
2022-09-27T01:45:39.696Z,1.00
2022-09-27T01:46:56.190Z,9.00
2022-09-27T01:48:14.001Z,9.00
2022-09-27T01:49:30.672Z,9.00
2022-09-27T01:50:48.491Z,1.00
2022-09-27T01:52:06.509Z,9.00
2022-09-27T01:53:24.321Z,9.00
2022-09-27T01:54:40.701Z,9.00
2022-09-27T01:55:57.353Z,9.00
2022-09-27T01:57:15.234Z,9.00
2022-09-27T01:58:31.594Z,9.00
2022-09-27T01:59:49.427Z,1.00
2022-09-27T02:01:07.264Z,9.00
2022-09-27T02:02:25.419Z,9.00
2022-09-27T02:03:43.214Z,9.00
2022-09-27T02:05:01.044Z,9.00
2022-09-27T02:06:18.866Z,9.00
2022-09-27T02:07:35.284Z,9.00
2022-09-27T02:08:53.417Z,1.00
2022-09-27T02:10:11.256Z,1.00
2022-09-27T02:11:29.287Z,9.00
2022-09-27T02:12:45.669Z,9.00
2022-09-27T02:14:02.028Z,9.00
2022-09-27T02:15:18.659Z,1.00
2022-09-27T02:16:35.140Z,9.00
2022-09-27T02:17:52.976Z,1.00
2022-09-27T02:19:10.840Z,9.00
2022-09-27T02:20:28.690Z,9.00
2022-09-27T02:21:45.350Z,9.00
2022-09-27T02:23:03.219Z,1.00
2022-09-27T02:24:19.567Z,9.00
2022-09-27T02:25:37.396Z,9.00
2022-09-27T02:26:55.217Z,1.00
2022-09-27T02:28:13.340Z,9.00
2022-09-27T02:29:29.706Z,9.00
2022-09-27T02:30:47.589Z,1.00
2022-09-27T02:32:05.401Z,1.00
2022-09-27T02:33:23.251Z,9.00
2022-09-27T02:34:39.891Z,9.00
2022-09-27T02:35:56.275Z,9.00
2022-09-27T02:37:12.633Z,1.00
2022-09-27T02:38:30.602Z,9.00
2022-09-27T02:39:48.413Z,9.00
2022-09-27T02:41:05.064Z,1.00
2022-09-27T02:42:21.443Z,9.00
2022-09-27T02:43:37.843Z,9.00
2022-09-27T02:44:54.283Z,9.00
2022-09-27T02:46:12.102Z,1.00
2022-09-27T02:47:28.798Z,9.00
2022-09-27T02:48:45.181Z,1.00
2022-09-27T02:50:03.003Z,1.00
2022-09-27T02:51:19.364Z,9.00
2022-09-27T02:52:37.676Z,9.00
2022-09-27T02:53:54.338Z,9.00
2022-09-27T02:55:12.165Z,9.00
2022-09-27T02:56:28.532Z,9.00
2022-09-27T02:57:46.348Z,9.00
2022-09-27T02:59:04.226Z,9.00
2022-09-27T03:00:20.880Z,9.00
2022-09-27T03:01:37.285Z,9.00
2022-09-27T03:02:55.142Z,9.00
2022-09-27T03:04:13.010Z,9.00
2022-09-27T03:05:29.390Z,9.00
2022-09-27T03:06:46.030Z,9.00
2022-09-27T03:08:03.877Z,9.00
2022-09-27T03:09:20.311Z,9.00
2022-09-27T03:10:38.134Z,9.00
2022-09-27T03:11:54.516Z,9.00
2022-09-27T03:13:12.629Z,9.00
2022-09-27T03:14:29.072Z,9.00
2022-09-27T03:15:45.493Z,9.00
2022-09-27T03:17:03.320Z,9.00
2022-09-27T03:18:21.222Z,9.00
2022-09-27T03:19:37.869Z,9.00
2022-09-27T03:20:54.234Z,9.00
2022-09-27T03:22:12.043Z,9.00
2022-09-27T03:23:28.454Z,9.00
2022-09-27T03:24:46.267Z,1.00
2022-09-27T03:26:02.931Z,9.00
2022-09-27T03:27:19.316Z,9.00
2022-09-27T03:28:37.138Z,1.00
2022-09-27T03:29:53.499Z,9.00
2022-09-27T03:31:11.393Z,1.00
2022-09-27T03:32:29.533Z,9.00
2022-09-27T03:33:47.407Z,1.00
2022-09-27T03:35:03.763Z,1.00
2022-09-27T03:36:20.157Z,1.00
2022-09-27T03:37:36.526Z,9.00
2022-09-27T03:38:53.228Z,1.00
2022-09-27T03:40:11.049Z,9.00
2022-09-27T03:41:27.428Z,9.00
2022-09-27T03:42:49.633Z,9.00
2022-09-27T03:44:07.633Z,1.00
2022-09-27T03:45:24.269Z,9.00
2022-09-27T03:46:42.107Z,9.00
2022-09-27T03:47:58.489Z,9.00
2022-09-27T03:49:16.504Z,1.00
2022-09-27T03:50:34.382Z,9.00
2022-09-27T03:51:52.520Z,9.00
2022-09-27T03:53:08.891Z,1.00
2022-09-27T03:54:25.276Z,9.00
2022-09-27T03:55:43.081Z,1.00
2022-09-27T03:56:59.624Z,9.00
2022-09-27T03:58:17.732Z,9.00
2022-09-27T03:59:35.561Z,1.00
2022-09-27T04:00:53.376Z,9.00
2022-09-27T04:02:11.306Z,9.00
2022-09-27T04:03:29.100Z,1.00
2022-09-27T04:04:45.766Z,1.00
2022-09-27T04:06:03.575Z,9.00
2022-09-27T04:07:21.431Z,9.00
2022-09-27T04:08:37.787Z,9.00
2022-09-27T04:09:54.154Z,1.00
2022-09-27T04:11:12.277Z,1.00
2022-09-27T04:12:30.110Z,9.00
2022-09-27T04:13:47.931Z,9.00
2022-09-27T04:15:05.774Z,9.00
2022-09-27T04:16:22.213Z,9.00
2022-09-27T04:17:40.305Z,9.00
2022-09-27T04:18:58.127Z,9.00
2022-09-27T04:20:16.038Z,9.00
2022-09-27T04:21:32.397Z,9.00
2022-09-27T04:22:50.237Z,9.00
2022-09-27T04:24:08.363Z,15.00
2022-09-27T04:25:26.239Z,13.00
2022-09-27T04:26:44.104Z,13.00
2022-09-27T04:28:01.949Z,13.00
2022-09-27T04:29:19.790Z,13.00
2022-09-27T04:30:38.011Z,13.00
2022-09-27T04:31:55.865Z,15.00
2022-09-27T04:33:13.690Z,13.00
2022-09-27T04:34:32.413Z,13.00
2022-09-27T04:35:50.300Z,15.00
2022-09-27T04:37:07.891Z,9.00
2022-09-27T04:38:25.744Z,9.00
2022-09-27T04:39:43.568Z,9.00
2022-09-27T04:41:01.478Z,9.00
2022-09-27T04:42:19.262Z,9.00
2022-09-27T04:43:37.371Z,9.00
2022-09-27T04:44:55.203Z,9.00
2022-09-27T04:46:13.211Z,9.00
2022-09-27T04:47:31.505Z,9.00
2022-09-27T04:48:49.843Z,13.00
2022-09-27T04:50:07.934Z,13.00
2022-09-27T04:51:25.255Z,5.00
2022-09-27T04:52:43.106Z,13.00
2022-09-27T04:54:01.444Z,13.00
2022-09-27T04:55:19.296Z,13.00
2022-09-27T04:56:37.413Z,13.00
2022-09-27T04:57:55.267Z,13.00
2022-09-27T04:59:13.141Z,13.00
2022-09-27T05:02:21.507Z,20.00
2022-09-27T05:03:39.669Z,20.00
2022-09-27T05:04:57.506Z,20.00
2022-09-27T05:06:15.339Z,18.00
2022-09-27T05:07:33.211Z,18.00
2022-09-27T05:08:51.611Z,31.00
2022-09-27T05:10:10.300Z,18.00
2022-09-27T05:11:27.614Z,18.00
2022-09-27T05:12:45.458Z,31.00
2022-09-27T05:14:03.280Z,31.00
2022-09-27T05:15:20.620Z,19.00
2022-09-27T05:16:39.290Z,36.00
2022-09-27T05:17:57.117Z,41.00
2022-09-27T05:19:15.146Z,41.00
2022-09-27T05:20:33.052Z,47.00
2022-09-27T05:21:51.382Z,53.00
2022-09-27T05:23:10.011Z,46.00
2022-09-27T05:24:28.434Z,63.00
2022-09-27T05:25:46.286Z,68.00
2022-09-27T05:27:04.115Z,74.00
2022-09-27T05:28:21.987Z,79.00
2022-09-27T05:29:41.206Z,85.00
2022-09-27T05:30:58.071Z,82.00
2022-09-27T05:32:15.937Z,99.00
2022-09-27T05:33:33.763Z,98.00
2022-09-27T05:34:52.097Z,104.00
2022-09-27T05:36:10.536Z,107.00
2022-09-27T05:37:29.407Z,113.00
2022-09-27T05:38:47.252Z,117.00
2022-09-27T05:40:22.688Z,117.00
2022-09-27T05:41:27.329Z,122.00
2022-09-27T05:42:45.267Z,137.00
2022-09-27T05:44:02.734Z,150.00
2022-09-27T05:45:20.583Z,134.00
2022-09-27T05:46:39.517Z,109.00
2022-09-27T05:47:57.110Z,118.00
2022-09-27T05:49:14.984Z,129.00
2022-09-27T05:56:04.743Z,100.00
2022-09-27T05:57:22.590Z,98.00
2022-09-27T05:58:45.409Z,100.00
2022-09-27T06:00:05.371Z,115.00
2022-09-27T06:01:24.759Z,109.00
2022-09-27T06:08:19.713Z,151.00
2022-09-27T06:18:52.011Z,438.00
2022-09-27T06:20:11.360Z,330.00
2022-09-27T06:21:30.724Z,342.00
2022-09-27T06:22:48.553Z,377.00
2022-09-27T06:24:08.936Z,386.00
2022-09-27T06:27:19.506Z,311.00
2022-09-27T06:28:39.558Z,298.00
2022-09-27T06:29:57.896Z,364.00
2022-09-27T06:31:16.375Z,484.00
2022-09-27T06:32:35.767Z,694.00
2022-09-27T06:33:55.328Z,967.00
2022-09-27T06:35:14.260Z,1090.00
2022-09-27T06:36:34.730Z,1172.00
2022-09-27T06:37:54.826Z,1272.00
2022-09-27T06:39:21.931Z,1194.00
2022-09-27T06:40:42.038Z,1140.00
2022-09-27T06:42:00.508Z,1240.00
2022-09-27T06:43:20.110Z,1304.00
2022-09-27T06:44:39.086Z,1359.00
2022-09-27T06:45:58.264Z,1674.00
2022-09-27T06:47:17.603Z,1510.00
2022-09-27T06:48:48.808Z,1700.00
2022-09-27T06:50:13.069Z,1635.00
2022-09-27T06:51:39.638Z,1710.00
2022-09-27T06:52:58.667Z,1612.00
2022-09-27T06:54:17.537Z,1704.00
2022-09-27T06:55:35.369Z,1773.00
2022-09-27T06:56:53.188Z,1313.00
2022-09-27T06:58:12.577Z,1536.00
2022-09-27T06:59:30.439Z,1753.00
2022-09-27T07:00:49.890Z,1778.00
2022-09-27T07:02:07.764Z,1838.00
2022-09-27T07:03:32.130Z,1740.00
2022-09-27T07:04:51.991Z,1591.00
2022-09-27T07:06:10.360Z,2120.00
2022-09-27T07:07:29.768Z,2201.00
2022-09-27T07:08:47.711Z,2122.00
2022-09-27T07:10:09.933Z,1991.00
2022-09-27T07:11:28.115Z,2219.00
2022-09-27T07:12:48.972Z,1997.00
2022-09-27T07:14:07.383Z,1738.00
2022-09-27T07:15:29.131Z,1297.00
2022-09-27T07:16:51.619Z,1322.00
2022-09-27T07:18:10.964Z,1047.00
2022-09-27T07:19:32.986Z,1080.00
2022-09-27T07:20:56.795Z,1033.00
2022-09-27T07:22:17.564Z,1074.00
2022-09-27T07:23:37.976Z,1001.00
2022-09-27T07:26:49.192Z,843.00
2022-09-27T07:28:07.103Z,672.00
2022-09-27T07:29:27.750Z,622.00
2022-09-27T07:32:43.582Z,1159.00
2022-09-27T07:34:02.439Z,1073.00
2022-09-27T07:35:20.262Z,1040.00
2022-09-27T07:36:39.500Z,864.00
2022-09-27T07:39:49.603Z,793.00
2022-09-27T07:41:09.001Z,805.00
2022-09-27T07:42:28.971Z,817.00
2022-09-27T07:43:47.716Z,794.00
2022-09-27T07:45:09.127Z,781.00
2022-09-27T07:46:32.244Z,755.00
2022-09-27T07:47:51.202Z,666.00
2022-09-27T07:49:11.516Z,681.00
2022-09-27T07:56:10.955Z,686.00
2022-09-27T07:57:32.763Z,738.00
2022-09-27T07:58:53.052Z,872.00
2022-09-27T08:00:13.514Z,905.00
2022-09-27T08:01:34.317Z,631.00
2022-09-27T08:04:43.140Z,586.00
2022-09-27T08:07:57.072Z,703.00
2022-09-27T08:09:18.516Z,907.00
2022-09-27T08:12:27.139Z,1277.00
2022-09-27T08:13:51.888Z,1294.00
2022-09-27T08:15:12.318Z,1272.00
2022-09-27T08:16:39.484Z,1319.00
2022-09-27T08:17:59.646Z,1374.00
2022-09-27T08:19:24.475Z,1590.00
2022-09-27T08:22:34.824Z,2078.00
2022-09-27T08:23:56.098Z,2102.00
2022-09-27T08:25:21.964Z,1468.00
2022-09-27T08:26:42.796Z,1319.00
2022-09-27T08:29:57.736Z,1400.00
2022-09-27T08:33:28.628Z,2042.00
2022-09-27T08:34:35.987Z,2017.00
2022-09-27T08:35:54.894Z,8973.00
2022-09-27T08:37:23.521Z,13840.00
2022-09-27T08:38:47.720Z,12250.00
2022-09-27T08:40:11.590Z,10856.00
2022-09-27T08:41:35.825Z,3238.00
2022-09-27T08:42:56.788Z,5642.00
2022-09-27T08:44:19.919Z,5591.00
2022-09-27T08:45:37.769Z,3605.00
2022-09-27T08:47:07.008Z,3014.00
2022-09-27T09:01:25.055Z,1271.00
2022-09-27T09:02:50.082Z,2985.00
2022-09-27T09:04:09.494Z,3595.00
2022-09-27T09:05:27.308Z,10478.00
2022-09-27T09:06:46.047Z,9196.00
2022-09-27T09:08:04.907Z,7453.00
2022-09-27T09:09:23.235Z,4090.00
2022-09-27T09:10:42.069Z,15543.00
2022-09-27T09:12:01.086Z,3369.00
2022-09-27T09:13:19.427Z,2898.00
2022-09-27T09:14:37.282Z,12834.00
2022-09-27T09:15:56.121Z,2658.00
2022-09-27T09:17:15.586Z,4807.00
2022-09-27T09:18:33.226Z,11555.00
2022-09-27T09:19:52.443Z,13845.00
2022-09-27T09:21:11.777Z,13830.00
2022-09-27T09:22:37.421Z,3102.00
2022-09-27T09:23:54.802Z,3252.00
2022-09-27T09:25:15.970Z,15294.00
2022-09-27T09:26:34.358Z,10490.00
2022-09-27T09:27:56.113Z,4225.00
2022-09-27T09:29:16.754Z,16176.00
2022-09-27T09:30:37.682Z,4609.00
2022-09-27T09:31:57.753Z,12244.00
2022-09-27T09:33:19.969Z,5186.00
2022-09-27T09:34:37.833Z,5126.00
2022-09-27T09:35:56.194Z,3954.00
2022-09-27T09:37:15.055Z,4242.00
2022-09-27T09:38:34.449Z,5042.00
2022-09-27T09:39:53.827Z,4909.00
2022-09-27T09:41:13.197Z,3574.00
2022-09-27T09:42:31.065Z,2921.00
2022-09-27T09:43:49.261Z,3122.00
2022-09-27T09:45:06.586Z,1727.00
2022-09-27T09:46:25.820Z,1213.00
2022-09-27T09:47:46.635Z,969.00
2022-09-27T09:49:05.548Z,836.00
2022-09-27T09:50:27.685Z,706.00
2022-09-27T09:51:49.077Z,817.00
2022-09-27T09:55:05.308Z,1025.00
2022-09-27T10:00:06.903Z,1040.00
2022-09-27T10:01:37.831Z,989.00
2022-09-27T10:02:57.347Z,789.00
2022-09-27T10:04:19.835Z,801.00
2022-09-27T10:05:39.703Z,942.00
2022-09-27T10:07:01.143Z,1142.00
2022-09-27T10:12:15.609Z,2697.00
2022-09-27T10:13:37.444Z,2539.00
2022-09-27T10:18:47.589Z,4114.00
2022-09-27T10:20:11.366Z,15265.00
2022-09-27T10:21:43.908Z,8151.00
2022-09-27T10:23:06.738Z,19582.00
2022-09-27T10:24:30.387Z,7482.00
2022-09-27T10:25:55.968Z,6103.00
2022-09-27T10:27:16.320Z,5134.00
2022-09-27T10:28:45.678Z,4317.00
2022-09-27T10:30:08.747Z,4288.00
2022-09-27T10:33:20.100Z,4769.00
2022-09-27T10:34:44.351Z,3912.00
2022-09-27T10:37:58.236Z,3358.00
2022-09-27T10:39:33.537Z,3136.00
2022-09-27T10:40:52.052Z,3030.00
2022-09-27T10:42:14.006Z,1756.00
2022-09-27T10:43:42.747Z,3351.00
2022-09-27T10:45:06.605Z,2263.00
2022-09-27T10:50:19.026Z,2593.00
2022-09-27T10:51:45.768Z,3276.00
2022-09-27T10:54:59.238Z,3028.00
2022-09-27T10:56:31.626Z,1939.00
2022-09-27T11:01:32.897Z,1416.00
2022-09-27T11:02:59.836Z,1249.00
2022-09-27T11:04:20.771Z,1652.00
2022-09-27T11:07:40.834Z,2553.00
2022-09-27T11:09:02.875Z,1699.00
2022-09-27T11:10:20.715Z,1534.00
2022-09-27T11:11:52.048Z,1544.00
2022-09-27T11:13:04.850Z,3111.00
2022-09-27T11:14:31.074Z,1950.00
2022-09-27T11:16:01.161Z,1407.00
2022-09-27T11:17:18.940Z,3354.00
2022-09-27T11:18:37.986Z,2215.00
2022-09-27T11:20:04.852Z,21007.00
2022-09-27T11:21:26.859Z,11075.00
2022-09-27T11:22:54.861Z,2400.00
2022-09-27T11:24:10.638Z,4716.00
2022-09-27T11:25:32.126Z,3094.00
2022-09-27T11:26:54.646Z,1476.00
2022-09-27T11:28:16.019Z,1254.00
2022-09-27T11:29:34.220Z,1232.00
2022-09-27T11:30:52.192Z,1265.00
2022-09-27T11:32:11.911Z,1035.00
2022-09-27T11:33:38.772Z,814.00
2022-09-27T11:35:05.948Z,929.00
2022-09-27T11:36:31.823Z,902.00
2022-09-27T11:37:50.925Z,892.00
2022-09-27T11:39:09.905Z,740.00
2022-09-27T11:40:29.423Z,762.00
2022-09-27T11:41:49.773Z,725.00
2022-09-27T11:43:13.905Z,936.00
2022-09-27T11:44:36.810Z,961.00
2022-09-27T11:46:16.752Z,1216.00
2022-09-27T11:47:25.238Z,1536.00
2022-09-27T11:50:36.950Z,2237.00
2022-09-27T11:51:56.959Z,1962.00
2022-09-27T11:53:15.871Z,2532.00
2022-09-27T11:54:35.799Z,3359.00
2022-09-27T11:55:56.309Z,9285.00
2022-09-27T11:57:19.902Z,4211.00
2022-09-27T11:58:38.946Z,11840.00
2022-09-27T11:59:58.449Z,5261.00
2022-09-27T12:01:28.795Z,7537.00
2022-09-27T12:02:50.188Z,2207.00
2022-09-27T12:04:11.516Z,2189.00
2022-09-27T12:05:32.848Z,2760.00
2022-09-27T12:06:51.773Z,2158.00
2022-09-27T12:08:11.448Z,1941.00
2022-09-27T12:09:31.100Z,2912.00
2022-09-27T12:12:42.263Z,3116.00
2022-09-27T12:14:05.393Z,12071.00
2022-09-27T12:15:24.249Z,19426.00
2022-09-27T12:16:45.154Z,5696.00
2022-09-27T12:18:04.536Z,5495.00
2022-09-27T12:19:23.918Z,3239.00
2022-09-27T12:20:45.044Z,4656.00
2022-09-27T12:22:03.393Z,4620.00
2022-09-27T12:23:23.133Z,4036.00
2022-09-27T12:24:41.996Z,2818.00
2022-09-27T12:26:01.699Z,4029.00
2022-09-27T12:27:21.094Z,4002.00
2022-09-27T12:28:41.451Z,3210.00
2022-09-27T12:30:01.605Z,3472.00
2022-09-27T12:31:30.244Z,4070.00
2022-09-27T12:32:46.212Z,3062.00
2022-09-27T12:34:08.939Z,5390.00
2022-09-27T12:37:18.486Z,4696.00
2022-09-27T12:38:39.791Z,3238.00
2022-09-27T12:40:02.129Z,1055.00
2022-09-27T12:41:26.330Z,2952.00
2022-09-27T12:42:49.053Z,3439.00
2022-09-27T12:46:01.010Z,10019.00
2022-09-27T12:47:18.897Z,3414.00
2022-09-27T12:48:37.739Z,3772.00
2022-09-27T12:50:01.170Z,2401.00
2022-09-27T12:51:21.953Z,1578.00
2022-09-27T12:52:42.508Z,1298.00
2022-09-27T12:54:03.927Z,1235.00
2022-09-27T12:55:23.262Z,1153.00
2022-09-27T12:56:47.489Z,1067.00
2022-09-27T12:58:09.860Z,950.00
2022-09-27T12:59:30.712Z,1041.00
2022-09-27T13:00:51.511Z,1409.00
2022-09-27T13:02:15.738Z,2071.00
2022-09-27T13:05:36.456Z,3620.00
2022-09-27T13:06:56.885Z,8115.00
2022-09-27T13:08:17.793Z,4172.00
2022-09-27T13:09:39.771Z,3953.00
2022-09-27T13:11:08.129Z,3079.00
2022-09-27T13:12:27.937Z,2191.00
2022-09-27T13:13:47.850Z,1963.00
2022-09-27T13:16:59.243Z,855.00
2022-09-27T13:18:17.611Z,646.00
2022-09-27T13:19:37.362Z,460.00
2022-09-27T13:20:56.210Z,422.00
2022-09-27T13:22:15.791Z,412.00
2022-09-27T13:23:34.762Z,419.00
2022-09-27T13:24:53.594Z,431.00
2022-09-27T13:26:10.902Z,500.00
2022-09-27T13:27:30.772Z,567.00
2022-09-27T13:28:52.844Z,597.00
2022-09-27T13:30:13.141Z,712.00
2022-09-27T13:31:32.573Z,974.00
2022-09-27T13:32:52.429Z,1187.00
2022-09-27T13:34:12.824Z,1127.00
2022-09-27T13:35:35.989Z,941.00
2022-09-27T13:37:05.727Z,735.00
2022-09-27T13:38:26.077Z,774.00
2022-09-27T13:39:45.978Z,803.00
2022-09-27T13:41:04.224Z,711.00
2022-09-27T13:42:23.869Z,606.00
2022-09-27T13:43:49.087Z,716.00
2022-09-27T13:45:08.988Z,775.00
2022-09-27T13:46:28.240Z,583.00
2022-09-27T13:47:47.574Z,522.00
2022-09-27T13:49:06.439Z,648.00
2022-09-27T13:50:26.283Z,919.00
2022-09-27T13:53:36.176Z,1546.00
2022-09-27T13:55:00.909Z,1812.00
2022-09-27T13:56:27.780Z,1950.00
2022-09-27T13:57:50.531Z,2029.00
2022-09-27T13:59:12.271Z,2376.00
2022-09-27T14:00:36.854Z,2662.00
2022-09-27T14:01:55.766Z,2673.00
2022-09-27T14:03:15.185Z,2955.00
2022-09-27T14:04:35.349Z,2787.00
2022-09-27T14:11:26.179Z,2619.00
2022-09-27T14:16:26.946Z,2235.00
2022-09-27T14:17:46.282Z,2158.00
2022-09-27T14:19:05.641Z,2198.00
2022-09-27T14:20:24.463Z,2280.00
2022-09-27T14:21:43.292Z,2234.00
2022-09-27T14:23:01.654Z,2560.00
2022-09-27T14:24:20.003Z,1796.00
2022-09-27T14:27:30.884Z,945.00
2022-09-27T14:28:49.014Z,691.00
2022-09-27T14:30:10.562Z,471.00
2022-09-27T14:31:28.403Z,334.00
2022-09-27T14:32:47.989Z,248.00
2022-09-27T14:34:05.852Z,202.00
2022-09-27T14:35:23.704Z,222.00
2022-09-27T14:36:42.042Z,262.00
2022-09-27T14:38:20.751Z,263.00
2022-09-27T14:39:26.694Z,254.00
2022-09-27T14:40:45.088Z,307.00
2022-09-27T14:42:02.430Z,416.00
2022-09-27T14:43:21.565Z,641.00
2022-09-27T14:44:39.918Z,1145.00
2022-09-27T14:46:00.648Z,1653.00
2022-09-27T14:47:19.054Z,1855.00
2022-09-27T14:48:36.358Z,1946.00
2022-09-27T14:49:54.462Z,1879.00
2022-09-27T14:51:14.613Z,1763.00
2022-09-27T14:52:32.736Z,1523.00
2022-09-27T14:53:50.571Z,1277.00
2022-09-27T14:55:09.936Z,1189.00
2022-09-27T14:56:28.556Z,1265.00
2022-09-27T14:57:46.407Z,1339.00
2022-09-27T14:59:03.759Z,1429.00
2022-09-27T15:00:21.610Z,1434.00
2022-09-27T15:01:39.449Z,1352.00
2022-09-27T15:02:57.357Z,1298.00
2022-09-27T15:04:15.356Z,1291.00
2022-09-27T15:05:33.212Z,1311.00
2022-09-27T15:06:51.624Z,1255.00
2022-09-27T15:08:09.754Z,1267.00
2022-09-27T15:09:30.991Z,1252.00
2022-09-27T15:10:50.308Z,1258.00
2022-09-27T15:12:08.373Z,1292.00
2022-09-27T15:13:26.779Z,1302.00
2022-09-27T15:14:44.988Z,1318.00
2022-09-27T15:16:02.843Z,1358.00
2022-09-27T15:17:20.704Z,1392.00
2022-09-27T15:18:38.542Z,1471.00
2022-09-27T15:19:56.375Z,1498.00
2022-09-27T15:21:14.268Z,1547.00
2022-09-27T15:22:32.156Z,1547.00
2022-09-27T15:23:49.974Z,1566.00
2022-09-27T15:25:07.839Z,1499.00
2022-09-27T15:26:25.686Z,1459.00
2022-09-27T15:27:43.576Z,1410.00
2022-09-27T15:29:01.427Z,1404.00
2022-09-27T15:30:19.289Z,1362.00
2022-09-27T15:31:39.179Z,1284.00
2022-09-27T15:32:58.849Z,1358.00
2022-09-27T15:34:16.888Z,1364.00
2022-09-27T15:35:35.296Z,1259.00
2022-09-27T15:36:53.143Z,1195.00
2022-09-27T15:38:11.290Z,1199.00
2022-09-27T15:39:29.275Z,1208.00
2022-09-27T15:40:46.619Z,1229.00
2022-09-27T15:42:04.431Z,1221.00
2022-09-27T15:43:22.269Z,1140.00
2022-09-27T15:44:40.193Z,1058.00
2022-09-27T15:45:58.164Z,1000.00
2022-09-27T15:47:15.982Z,893.00
2022-09-27T15:48:33.820Z,759.00
2022-09-27T15:49:52.073Z,649.00
2022-09-27T15:51:09.932Z,630.00
2022-09-27T15:52:27.733Z,604.00
2022-09-27T15:53:45.563Z,527.00
2022-09-27T15:55:03.408Z,433.00
2022-09-27T15:56:21.515Z,338.00
2022-09-27T15:57:39.406Z,259.00
2022-09-27T15:58:57.768Z,225.00
2022-09-27T16:00:15.663Z,179.00
2022-09-27T16:01:33.542Z,188.00
2022-09-27T16:02:51.667Z,178.00
2022-09-27T16:04:09.498Z,155.00
2022-09-27T16:05:27.366Z,159.00
2022-09-27T16:06:45.240Z,152.00
2022-09-27T16:08:03.558Z,172.00
2022-09-27T16:09:22.201Z,205.00
2022-09-27T16:10:40.019Z,265.00
2022-09-27T16:11:57.908Z,300.00
2022-09-27T16:13:15.728Z,333.00
2022-09-27T16:14:33.579Z,333.00
2022-09-27T16:15:51.483Z,341.00
2022-09-27T16:17:09.430Z,327.00
2022-09-27T16:18:30.636Z,344.00
2022-09-27T16:19:49.762Z,328.00
2022-09-27T16:21:07.640Z,296.00
2022-09-27T16:22:25.486Z,292.00
2022-09-27T16:23:43.403Z,313.00
2022-09-27T16:25:01.292Z,318.00
2022-09-27T16:26:19.119Z,294.00
2022-09-27T16:27:36.951Z,279.00
2022-09-27T16:28:55.337Z,244.00
2022-09-27T16:30:13.175Z,246.00
2022-09-27T16:31:32.039Z,186.00
2022-09-27T16:32:49.904Z,166.00
2022-09-27T16:34:07.905Z,143.00
2022-09-27T16:35:25.759Z,160.00
2022-09-27T16:36:43.585Z,146.00
2022-09-27T16:38:01.415Z,145.00
2022-09-27T16:39:19.277Z,144.00
2022-09-27T16:40:37.173Z,139.00
2022-09-27T16:41:55.026Z,159.00
2022-09-27T16:43:11.708Z,112.00
2022-09-27T16:44:29.567Z,133.00
2022-09-27T16:45:47.429Z,136.00
2022-09-27T16:47:05.305Z,135.00
2022-09-27T16:48:23.106Z,100.00
2022-09-27T16:49:40.732Z,129.00
2022-09-27T16:50:58.657Z,116.00
2022-09-27T16:52:16.632Z,95.00
2022-09-27T16:53:34.948Z,103.00
2022-09-27T16:54:52.769Z,99.00
2022-09-27T16:56:11.504Z,102.00
2022-09-27T16:57:29.320Z,102.00
2022-09-27T16:58:47.150Z,106.00
2022-09-27T17:00:04.545Z,92.00
2022-09-27T17:01:22.821Z,96.00
2022-09-27T17:02:40.692Z,58.00
2022-09-27T17:03:58.539Z,61.00
2022-09-27T17:05:16.367Z,61.00
2022-09-27T17:06:34.231Z,60.00
2022-09-27T17:07:51.872Z,55.00
2022-09-27T17:09:11.328Z,38.00
2022-09-27T17:10:29.154Z,63.00
2022-09-27T17:11:47.173Z,29.00
2022-09-27T17:13:05.011Z,47.00
2022-09-27T17:14:22.889Z,41.00
2022-09-27T17:15:42.501Z,41.00
2022-09-27T17:17:00.305Z,36.00
2022-09-27T17:18:18.135Z,31.00
2022-09-27T17:19:34.804Z,19.00
2022-09-27T17:20:52.673Z,19.00
2022-09-27T17:22:10.518Z,31.00
2022-09-27T17:23:28.338Z,14.00
2022-09-27T17:24:46.147Z,18.00
2022-09-27T17:26:04.277Z,10.00
2022-09-27T17:27:26.009Z,3.00
2022-09-27T17:28:43.858Z,5.00
2022-09-27T17:30:01.708Z,18.00
2022-09-27T17:31:19.594Z,10.00
2022-09-27T17:32:37.679Z,10.00
2022-09-27T17:33:57.911Z,13.00
2022-09-27T17:35:16.146Z,13.00
2022-09-27T17:36:33.520Z,5.00
2022-09-27T17:37:51.359Z,5.00
2022-09-27T17:39:09.191Z,15.00
2022-09-27T17:40:27.129Z,9.00
2022-09-27T17:41:44.928Z,9.00
2022-09-27T17:43:02.757Z,9.00
2022-09-27T17:44:20.909Z,9.00
2022-09-27T17:45:38.743Z,9.00
2022-09-27T17:46:56.599Z,9.00
2022-09-27T17:48:14.399Z,9.00
2022-09-27T17:49:32.324Z,9.00
2022-09-27T17:50:50.403Z,9.00
2022-09-27T17:52:08.233Z,9.00
2022-09-27T17:53:26.074Z,9.00
2022-09-27T17:54:43.949Z,9.00
2022-09-27T17:56:01.789Z,9.00
2022-09-27T17:57:19.596Z,9.00
2022-09-27T17:58:37.519Z,9.00
2022-09-27T17:59:55.354Z,9.00
2022-09-27T18:01:13.185Z,9.00
2022-09-27T18:02:29.918Z,9.00
2022-09-27T18:03:47.937Z,9.00
2022-09-27T18:05:05.775Z,9.00
2022-09-27T18:06:23.617Z,9.00
2022-09-27T18:07:41.439Z,9.00
2022-09-27T18:08:59.635Z,9.00
2022-09-27T18:10:17.470Z,9.00
2022-09-27T18:11:35.309Z,9.00
2022-09-27T18:12:51.689Z,9.00
2022-09-27T18:14:09.264Z,9.00
2022-09-27T18:15:25.912Z,9.00
2022-09-27T18:16:43.760Z,9.00
2022-09-27T18:18:01.581Z,9.00
2022-09-27T18:19:19.459Z,9.00
2022-09-27T18:20:37.273Z,9.00
2022-09-27T18:21:55.412Z,9.00
2022-09-27T18:23:13.235Z,9.00
2022-09-27T18:24:29.623Z,9.00
2022-09-27T18:25:47.453Z,9.00
2022-09-27T18:27:05.338Z,9.00
2022-09-27T18:28:22.014Z,9.00
2022-09-27T18:29:39.868Z,9.00
2022-09-27T18:30:57.752Z,9.00